createdAt,value
2022-11-17T00:01:29.538Z,11.47
2022-11-17T00:03:56.952Z,10.60
2022-11-17T00:06:24.416Z,10.37
2022-11-17T00:08:53.652Z,11.83
2022-11-17T00:11:22.408Z,10.83
2022-11-17T00:14:07.380Z,9.94
2022-11-17T00:16:34.785Z,10.77
2022-11-17T00:19:19.522Z,10.30
2022-11-17T00:21:46.894Z,11.93
2022-11-17T00:24:17.240Z,10.50
2022-11-17T00:27:00.013Z,11.50
2022-11-17T00:29:27.379Z,10.33
2022-11-17T00:32:13.002Z,10.63
2022-11-17T00:34:40.724Z,11.37
2022-11-17T00:37:09.507Z,12.17
2022-11-17T00:39:37.387Z,11.47
2022-11-17T00:42:06.367Z,9.83
2022-11-17T00:44:33.739Z,11.13
2022-11-17T00:47:01.171Z,10.73
2022-11-17T00:49:28.607Z,11.37
2022-11-17T00:51:57.803Z,11.10
2022-11-17T00:54:25.387Z,13.00
2022-11-17T00:56:52.899Z,11.10
2022-11-17T00:59:21.698Z,10.00
2022-11-17T01:01:49.220Z,11.57
2022-11-17T01:04:17.089Z,10.90
2022-11-17T01:06:46.315Z,11.13
2022-11-17T01:09:16.775Z,11.70
2022-11-17T01:11:44.958Z,11.73
2022-11-17T01:14:14.106Z,11.07
2022-11-17T01:16:43.049Z,12.80
2022-11-17T01:19:12.830Z,10.50
2022-11-17T01:21:40.284Z,10.63
2022-11-17T01:24:08.368Z,10.90
2022-11-17T01:26:37.416Z,9.90
2022-11-17T01:29:06.068Z,9.97
2022-11-17T01:31:35.836Z,9.33
2022-11-17T01:34:04.649Z,10.20
2022-11-17T01:36:56.005Z,10.90
2022-11-17T01:39:24.141Z,9.83
2022-11-17T01:41:51.957Z,11.17
2022-11-17T01:44:54.905Z,9.60
2022-11-17T01:47:27.010Z,10.23
2022-11-17T01:50:01.455Z,9.23
2022-11-17T01:52:32.314Z,10.93
2022-11-17T01:55:01.400Z,9.50
2022-11-17T01:57:33.939Z,10.83
2022-11-17T02:00:05.244Z,9.23
2022-11-17T02:02:34.076Z,9.90
2022-11-17T02:05:11.455Z,10.10
2022-11-17T02:07:41.132Z,9.63
2022-11-17T02:10:09.288Z,10.77
2022-11-17T02:12:37.722Z,10.47
2022-11-17T02:15:06.561Z,10.07
2022-11-17T02:17:37.605Z,10.90
2022-11-17T02:20:11.281Z,10.00
2022-11-17T02:23:23.008Z,9.87
2022-11-17T02:26:09.620Z,10.60
2022-11-17T02:28:43.546Z,9.83
2022-11-17T02:31:22.055Z,10.53
2022-11-17T02:37:43.170Z,10.23
2022-11-17T02:40:14.788Z,10.37
2022-11-17T02:43:01.844Z,9.83
2022-11-17T02:45:37.157Z,11.20
2022-11-17T02:48:08.261Z,10.73
2022-11-17T02:50:35.963Z,11.70
2022-11-17T02:53:04.830Z,11.17
2022-11-17T02:55:35.766Z,10.37
2022-11-17T02:58:03.148Z,10.80
2022-11-17T03:00:35.035Z,11.57
2022-11-17T03:03:20.725Z,11.03
2022-11-17T03:05:58.170Z,11.67
2022-11-17T03:08:33.152Z,12.57
2022-11-17T03:11:03.568Z,11.27
2022-11-17T03:13:43.086Z,10.97
2022-11-17T03:16:20.924Z,10.93
2022-11-17T03:18:59.305Z,10.90
2022-11-17T03:21:30.029Z,11.63
2022-11-17T03:24:04.954Z,10.03
2022-11-17T03:26:35.852Z,11.23
2022-11-17T03:29:08.539Z,10.40
2022-11-17T03:31:39.299Z,10.77
2022-11-17T03:34:12.473Z,11.10
2022-11-17T03:36:45.209Z,11.43
2022-11-17T03:39:16.622Z,10.77
2022-11-17T03:41:48.906Z,10.90
2022-11-17T03:44:19.426Z,10.83
2022-11-17T03:46:50.137Z,10.40
2022-11-17T03:49:24.542Z,10.67
2022-11-17T03:51:52.306Z,10.70
2022-11-17T03:54:19.857Z,10.23
2022-11-17T03:56:54.643Z,10.00
2022-11-17T03:59:28.070Z,10.27
2022-11-17T04:01:57.030Z,10.43
2022-11-17T04:04:25.013Z,11.60
2022-11-17T04:06:53.368Z,12.10
2022-11-17T04:09:24.381Z,11.27
2022-11-17T04:12:09.647Z,12.37
2022-11-17T04:14:54.470Z,10.93
2022-11-17T04:17:23.530Z,11.47
2022-11-17T04:19:50.920Z,11.57
2022-11-17T04:22:18.313Z,11.90
2022-11-17T04:24:45.752Z,10.77
2022-11-17T04:27:30.777Z,12.47
2022-11-17T04:29:58.173Z,11.37
2022-11-17T04:32:26.863Z,10.87
2022-11-17T04:34:54.249Z,13.17
2022-11-17T04:37:22.832Z,11.70
2022-11-17T04:39:50.474Z,12.90
2022-11-17T04:42:17.005Z,12.90
2022-11-17T04:44:44.401Z,12.13
2022-11-17T04:47:11.767Z,11.87
2022-11-17T04:49:40.506Z,12.57
2022-11-17T04:52:07.913Z,12.67
2022-11-17T04:54:35.312Z,13.17
2022-11-17T04:57:02.701Z,14.07
2022-11-17T04:59:30.100Z,13.23
2022-11-17T05:02:02.512Z,13.60
2022-11-17T05:04:50.262Z,14.07
2022-11-17T05:07:19.021Z,13.50
2022-11-17T05:09:46.440Z,13.60
2022-11-17T05:12:31.355Z,13.37
2022-11-17T05:14:58.710Z,13.13
2022-11-17T05:17:25.156Z,13.07
2022-11-17T05:19:52.589Z,13.17
2022-11-17T05:22:41.844Z,12.97
2022-11-17T05:25:10.228Z,13.63
2022-11-17T05:27:38.081Z,13.27
2022-11-17T05:30:08.128Z,13.97
2022-11-17T05:32:35.641Z,13.03
2022-11-17T05:35:03.040Z,12.40
2022-11-17T05:37:31.750Z,14.03
2022-11-17T05:39:59.117Z,14.40
2022-11-17T05:42:26.537Z,14.57
2022-11-17T05:44:53.898Z,13.47
2022-11-17T05:47:21.284Z,13.43
2022-11-17T05:49:48.673Z,13.67
2022-11-17T05:52:16.270Z,13.77
2022-11-17T05:54:45.137Z,13.37
2022-11-17T05:57:17.750Z,12.47
2022-11-17T05:59:50.315Z,14.90
2022-11-17T06:02:24.510Z,13.87
2022-11-17T06:04:52.470Z,13.37
2022-11-17T06:07:20.567Z,13.77
2022-11-17T06:09:49.460Z,13.53
2022-11-17T06:12:17.072Z,12.23
2022-11-17T06:14:44.465Z,13.10
2022-11-17T06:17:22.138Z,13.47
2022-11-17T06:19:56.383Z,14.03
2022-11-17T06:22:26.170Z,13.97
2022-11-17T06:24:55.700Z,15.37
2022-11-17T06:27:23.480Z,13.30
2022-11-17T06:29:51.291Z,13.57
2022-11-17T06:32:20.802Z,12.50
2022-11-17T06:34:55.612Z,12.77
2022-11-17T06:37:23.988Z,14.57
2022-11-17T06:39:51.619Z,13.73
2022-11-17T06:42:40.326Z,13.10
2022-11-17T06:45:08.964Z,11.53
2022-11-17T06:47:36.351Z,15.07
2022-11-17T06:50:04.070Z,13.07
2022-11-17T06:52:31.477Z,13.70
2022-11-17T06:54:58.906Z,13.47
2022-11-17T06:57:27.606Z,12.53
2022-11-17T06:59:55.036Z,13.60
2022-11-17T07:02:22.482Z,12.20
2022-11-17T07:04:49.870Z,13.13
2022-11-17T07:07:17.293Z,11.30
2022-11-17T07:09:44.713Z,13.90
2022-11-17T07:12:12.092Z,13.23
2022-11-17T07:14:40.872Z,13.23
2022-11-17T07:17:08.538Z,10.80
2022-11-17T07:19:35.939Z,13.00
2022-11-17T07:22:04.597Z,11.23
2022-11-17T07:24:32.057Z,12.07
2022-11-17T07:26:59.473Z,13.23
2022-11-17T07:29:28.783Z,11.23
2022-11-17T07:31:57.494Z,12.40
2022-11-17T07:34:24.889Z,12.20
2022-11-17T07:36:52.279Z,11.80
2022-11-17T07:39:21.743Z,11.03
2022-11-17T07:41:49.472Z,12.13
2022-11-17T07:44:16.860Z,11.27
2022-11-17T07:46:44.260Z,11.77
2022-11-17T07:49:12.969Z,11.17
2022-11-17T07:51:40.398Z,12.33
2022-11-17T07:54:07.898Z,10.57
2022-11-17T07:56:35.513Z,10.83
2022-11-17T07:59:02.880Z,11.30
2022-11-17T08:01:30.502Z,10.63
2022-11-17T08:03:58.446Z,10.83
2022-11-17T08:06:27.324Z,9.67
2022-11-17T08:08:54.763Z,11.13
2022-11-17T08:11:22.307Z,11.30
2022-11-17T08:13:50.835Z,11.00
2022-11-17T08:16:18.744Z,10.13
2022-11-17T08:18:51.806Z,11.10
2022-11-17T08:21:19.662Z,11.00
2022-11-17T08:23:51.134Z,11.77
2022-11-17T08:26:19.182Z,9.97
2022-11-17T08:28:46.581Z,11.03
2022-11-17T08:31:14.444Z,10.90
2022-11-17T08:33:41.813Z,10.00
2022-11-17T08:36:09.647Z,10.77
2022-11-17T08:38:38.618Z,9.97
2022-11-17T08:41:09.318Z,9.80
2022-11-17T08:43:36.738Z,10.70
2022-11-17T08:46:04.409Z,10.90
2022-11-17T08:48:33.141Z,12.17
2022-11-17T08:51:06.352Z,10.27
2022-11-17T08:53:33.984Z,10.57
2022-11-17T08:56:01.661Z,11.73
2022-11-17T08:58:30.390Z,12.50
2022-11-17T09:01:03.844Z,11.07
2022-11-17T09:03:32.662Z,12.00
2022-11-17T09:06:02.080Z,11.23
2022-11-17T09:08:45.152Z,13.30
2022-11-17T09:11:17.094Z,12.23
2022-11-17T09:13:46.742Z,11.63
2022-11-17T09:16:15.384Z,12.07
2022-11-17T09:18:43.007Z,12.57
2022-11-17T09:21:13.419Z,10.87
2022-11-17T09:23:40.897Z,12.73
2022-11-17T09:26:10.286Z,11.90
2022-11-17T09:28:38.023Z,11.97
2022-11-17T09:31:11.812Z,13.07
2022-11-17T09:33:39.733Z,12.23
2022-11-17T09:36:08.259Z,13.27
2022-11-17T09:38:36.190Z,13.37
2022-11-17T09:41:12.823Z,13.53
2022-11-17T09:43:45.987Z,13.47
2022-11-17T09:46:21.505Z,12.77
2022-11-17T09:48:54.660Z,12.27
2022-11-17T09:51:26.097Z,13.57
2022-11-17T09:53:58.378Z,14.20
2022-11-17T09:56:28.073Z,13.77
2022-11-17T09:58:59.715Z,13.50
2022-11-17T10:01:29.926Z,14.47
2022-11-17T10:04:00.023Z,13.90
2022-11-17T10:06:29.714Z,13.57
2022-11-17T10:09:02.802Z,13.97
2022-11-17T10:11:35.095Z,12.67
2022-11-17T10:14:04.953Z,14.60
2022-11-17T10:16:33.710Z,13.77
2022-11-17T10:19:03.304Z,13.93
2022-11-17T10:21:31.325Z,13.70
2022-11-17T10:24:00.389Z,14.17
2022-11-17T10:26:28.079Z,13.87
2022-11-17T10:29:09.052Z,13.10
2022-11-17T10:31:46.152Z,14.67
2022-11-17T10:34:37.065Z,14.00
2022-11-17T10:37:28.182Z,14.10
2022-11-17T10:40:23.658Z,13.23
2022-11-17T10:43:00.729Z,13.63
2022-11-17T10:45:28.987Z,14.93
2022-11-17T10:48:11.541Z,12.60
2022-11-17T10:50:38.961Z,13.27
2022-11-17T10:53:30.464Z,13.73
2022-11-17T10:56:04.806Z,12.37
2022-11-17T10:58:33.803Z,12.23
2022-11-17T11:01:04.009Z,11.37
2022-11-17T11:03:34.991Z,11.60
2022-11-17T11:06:10.769Z,11.37
2022-11-17T11:08:50.912Z,11.27
2022-11-17T11:11:35.896Z,11.40
2022-11-17T11:14:13.107Z,12.40
2022-11-17T11:16:46.682Z,12.10
2022-11-17T11:19:19.844Z,13.27
2022-11-17T11:22:06.064Z,12.60
2022-11-17T11:24:42.690Z,12.20
2022-11-17T11:27:29.131Z,12.07
2022-11-17T11:30:03.272Z,11.77
2022-11-17T11:32:39.950Z,12.10
2022-11-17T11:35:34.702Z,12.50
2022-11-17T11:38:16.516Z,12.30
2022-11-17T11:40:52.776Z,11.97
2022-11-17T11:43:33.898Z,12.73
2022-11-17T11:46:08.985Z,12.53
2022-11-17T11:48:40.808Z,11.10
2022-11-17T11:51:15.716Z,12.00
2022-11-17T11:53:50.583Z,12.47
2022-11-17T11:56:21.927Z,12.27
2022-11-17T11:58:55.038Z,11.17
2022-11-17T12:01:24.527Z,11.50
2022-11-17T12:03:59.065Z,10.57
2022-11-17T12:06:43.317Z,11.33
2022-11-17T12:09:26.105Z,10.40
2022-11-17T12:12:11.609Z,10.63
2022-11-17T12:14:39.514Z,11.33
2022-11-17T12:17:23.191Z,11.33
2022-11-17T12:19:57.215Z,11.43
2022-11-17T12:22:50.250Z,11.40
2022-11-17T12:25:20.120Z,10.03
2022-11-17T12:27:49.611Z,9.93
2022-11-17T12:30:55.757Z,11.10
2022-11-17T12:33:24.379Z,11.37
2022-11-17T12:36:31.075Z,10.97
2022-11-17T12:39:01.441Z,11.30
2022-11-17T12:42:06.502Z,11.87
2022-11-17T12:44:59.144Z,10.03
2022-11-17T12:47:29.017Z,10.83
2022-11-17T12:50:33.039Z,11.00
2022-11-17T12:53:24.297Z,11.30
2022-11-17T12:56:08.757Z,11.27
2022-11-17T12:58:46.845Z,10.97
2022-11-17T13:01:21.102Z,11.80
2022-11-17T13:03:55.786Z,11.73
2022-11-17T13:06:38.491Z,12.30
2022-11-17T13:09:07.429Z,9.87
2022-11-17T13:11:36.453Z,12.43
2022-11-17T13:14:09.443Z,12.67
2022-11-17T13:16:38.407Z,11.67
2022-11-17T13:19:30.573Z,12.50
2022-11-17T13:22:00.994Z,11.63
2022-11-17T13:24:34.012Z,11.57
2022-11-17T13:27:07.208Z,10.73
2022-11-17T13:29:35.230Z,11.90
2022-11-17T13:32:12.575Z,11.77
2022-11-17T13:34:47.505Z,11.47
2022-11-17T13:37:18.001Z,12.27
2022-11-17T13:39:59.503Z,11.30
2022-11-17T13:42:32.125Z,10.73
2022-11-17T13:45:02.815Z,10.83
2022-11-17T13:47:46.360Z,11.80
2022-11-17T13:50:37.981Z,10.80
2022-11-17T13:53:19.403Z,10.97
2022-11-17T13:55:48.009Z,11.03
2022-11-17T13:58:28.412Z,10.87
2022-11-17T14:00:57.961Z,11.40
2022-11-17T14:03:44.353Z,12.07
2022-11-17T14:06:13.706Z,11.53
2022-11-17T14:08:42.783Z,12.47
2022-11-17T14:11:21.121Z,12.23
2022-11-17T14:13:51.935Z,11.87
2022-11-17T14:16:27.773Z,12.23
2022-11-17T14:19:00.987Z,12.60
2022-11-17T14:21:29.253Z,9.73
2022-11-17T14:24:11.090Z,11.87
2022-11-17T14:26:44.431Z,12.23
2022-11-17T14:29:14.225Z,12.17
2022-11-17T14:31:41.709Z,12.20
2022-11-17T14:34:09.111Z,13.17
2022-11-17T14:36:37.788Z,12.13
2022-11-17T14:39:12.154Z,12.00
2022-11-17T14:41:40.783Z,12.50
2022-11-17T14:44:08.344Z,12.97
2022-11-17T14:46:37.339Z,11.47
2022-11-17T14:49:05.478Z,11.50
2022-11-17T14:51:33.515Z,12.20
2022-11-17T14:54:01.509Z,12.10
2022-11-17T14:56:28.860Z,12.43
2022-11-17T14:58:59.000Z,12.77
2022-11-17T15:01:30.323Z,11.77
2022-11-17T15:04:15.356Z,12.63
2022-11-17T15:06:48.819Z,14.23
2022-11-17T15:09:16.569Z,14.80
2022-11-17T15:11:44.019Z,13.77
2022-11-17T15:14:11.728Z,13.60
2022-11-17T15:16:39.130Z,14.13
2022-11-17T15:19:07.874Z,14.30
2022-11-17T15:21:35.286Z,12.37
2022-11-17T15:24:03.342Z,15.13
2022-11-17T15:26:30.746Z,13.37
2022-11-17T15:29:01.151Z,14.77
2022-11-17T15:31:29.100Z,14.80
2022-11-17T15:33:56.491Z,14.50
2022-11-17T15:36:25.402Z,14.33
2022-11-17T15:38:53.949Z,14.47
2022-11-17T15:41:21.383Z,14.13
2022-11-17T15:43:48.919Z,15.60
2022-11-17T15:46:18.208Z,14.73
2022-11-17T15:48:47.217Z,15.17
2022-11-17T15:51:16.775Z,16.17
2022-11-17T15:53:47.233Z,14.87
2022-11-17T15:56:16.778Z,15.90
2022-11-17T15:58:44.577Z,14.70
2022-11-17T16:01:14.035Z,15.60
2022-11-17T16:03:42.844Z,15.43
2022-11-17T16:06:11.009Z,18.03
2022-11-17T16:08:39.415Z,17.33
2022-11-17T16:11:10.359Z,17.97
2022-11-17T16:13:38.876Z,15.30
2022-11-17T16:16:07.416Z,17.63
2022-11-17T16:18:37.554Z,18.03
2022-11-17T16:21:06.751Z,16.60
2022-11-17T16:23:38.633Z,16.00
2022-11-17T16:26:06.218Z,16.10
2022-11-17T16:28:35.070Z,16.87
2022-11-17T16:31:13.212Z,16.30
2022-11-17T16:33:40.664Z,15.10
2022-11-17T16:36:09.319Z,16.27
2022-11-17T16:38:42.318Z,17.53
2022-11-17T16:41:13.260Z,14.87
2022-11-17T16:43:44.713Z,16.80
2022-11-17T16:46:16.927Z,17.43
2022-11-17T16:48:44.311Z,15.47
2022-11-17T16:51:11.698Z,16.67
2022-11-17T16:53:39.089Z,17.97
2022-11-17T16:56:08.302Z,16.87
2022-11-17T16:58:36.232Z,16.23
2022-11-17T17:01:12.673Z,16.00
2022-11-17T17:03:41.438Z,17.53
2022-11-17T17:06:10.844Z,15.93
2022-11-17T17:08:38.621Z,16.43
2022-11-17T17:11:07.948Z,15.37
2022-11-17T17:13:36.403Z,16.63
2022-11-17T17:16:04.617Z,16.50
2022-11-17T17:18:33.821Z,16.83
2022-11-17T17:21:01.501Z,16.70
2022-11-17T17:23:29.584Z,14.43
2022-11-17T17:26:04.798Z,15.90
2022-11-17T17:28:32.864Z,16.50
2022-11-17T17:31:00.637Z,17.17
2022-11-17T17:33:28.571Z,16.50
2022-11-17T17:36:02.354Z,16.73
2022-11-17T17:38:29.818Z,16.40
2022-11-17T17:40:57.307Z,17.40
2022-11-17T17:43:24.730Z,17.60
2022-11-17T17:45:53.790Z,16.10
2022-11-17T17:48:21.170Z,17.90
2022-11-17T17:50:49.146Z,18.63
2022-11-17T17:53:17.863Z,17.27
2022-11-17T17:55:45.249Z,16.83
2022-11-17T17:58:12.653Z,18.73
2022-11-17T18:00:40.158Z,18.93
2022-11-17T18:03:07.606Z,20.53
2022-11-17T18:05:35.020Z,17.27
2022-11-17T18:08:04.684Z,19.90
2022-11-17T18:10:33.402Z,20.90
2022-11-17T18:13:00.788Z,17.93
2022-11-17T18:15:28.452Z,19.07
2022-11-17T18:17:55.816Z,17.77
2022-11-17T18:20:23.507Z,19.77
2022-11-17T18:22:50.859Z,21.83
2022-11-17T18:25:18.265Z,20.70
2022-11-17T18:27:46.946Z,18.67
2022-11-17T18:30:14.573Z,19.27
2022-11-17T18:32:41.964Z,17.80
2022-11-17T18:35:09.780Z,19.33
2022-11-17T18:37:37.146Z,20.43
2022-11-17T18:40:05.100Z,19.33
2022-11-17T18:42:33.499Z,15.97
2022-11-17T18:45:02.198Z,18.20
2022-11-17T18:47:29.744Z,16.00
2022-11-17T18:49:57.176Z,18.80
2022-11-17T18:52:28.594Z,15.93
2022-11-17T18:54:58.733Z,18.60
2022-11-17T18:57:26.092Z,17.67
2022-11-17T18:59:53.451Z,17.93
2022-11-17T19:02:22.149Z,18.17
2022-11-17T19:04:49.512Z,19.83
2022-11-17T19:07:17.048Z,21.70
2022-11-17T19:09:44.455Z,18.17
2022-11-17T19:12:12.479Z,21.43
2022-11-17T19:14:39.850Z,18.20
2022-11-17T19:17:07.811Z,21.13
2022-11-17T19:19:36.695Z,19.23
2022-11-17T19:22:04.456Z,21.93
2022-11-17T19:24:31.920Z,17.57
2022-11-17T19:26:59.413Z,20.73
2022-11-17T19:29:26.801Z,19.93
2022-11-17T19:31:54.623Z,21.90
2022-11-17T19:34:22.111Z,20.60
2022-11-17T19:36:50.829Z,21.00
2022-11-17T19:39:18.537Z,20.57
2022-11-17T19:41:47.626Z,21.77
2022-11-17T19:44:15.159Z,20.67
2022-11-17T19:46:43.258Z,20.40
2022-11-17T19:49:12.774Z,22.03
2022-11-17T19:51:41.157Z,23.53
2022-11-17T19:54:13.299Z,22.27
2022-11-17T19:56:40.955Z,21.10
2022-11-17T19:59:13.951Z,21.50
2022-11-17T20:01:43.617Z,21.60
2022-11-17T20:04:11.173Z,22.77
2022-11-17T20:06:39.860Z,22.03
2022-11-17T20:09:08.994Z,23.13
2022-11-17T20:11:38.014Z,24.33
2022-11-17T20:14:06.236Z,21.40
2022-11-17T20:16:34.511Z,23.00
2022-11-17T20:19:02.999Z,21.10
2022-11-17T20:21:31.840Z,23.87
2022-11-17T20:24:01.078Z,23.00
2022-11-17T20:26:30.897Z,22.93
2022-11-17T20:29:00.511Z,19.73
2022-11-17T20:31:29.943Z,24.37
2022-11-17T20:34:00.545Z,21.97
2022-11-17T20:36:29.100Z,22.93
2022-11-17T20:38:58.009Z,20.97
2022-11-17T20:41:26.165Z,20.67
2022-11-17T20:43:55.436Z,21.23
2022-11-17T20:46:26.574Z,21.27
2022-11-17T20:48:54.556Z,22.13
2022-11-17T20:51:23.469Z,20.53
2022-11-17T20:53:54.506Z,20.63
2022-11-17T20:56:21.965Z,21.77
2022-11-17T20:58:50.177Z,20.53
2022-11-17T21:01:19.664Z,22.13
2022-11-17T21:03:49.354Z,22.30
2022-11-17T21:06:18.299Z,20.63
2022-11-17T21:08:47.962Z,24.13
2022-11-17T21:11:37.742Z,21.63
2022-11-17T21:14:06.894Z,24.33
2022-11-17T21:16:38.376Z,23.90
2022-11-17T21:19:12.074Z,20.67
2022-11-17T21:21:39.762Z,20.73
2022-11-17T21:24:07.885Z,21.30
2022-11-17T21:26:35.590Z,19.63
2022-11-17T21:29:06.693Z,19.67
2022-11-17T21:31:34.850Z,20.27
2022-11-17T21:34:05.189Z,19.57
2022-11-17T21:36:35.677Z,20.93
2022-11-17T21:39:03.171Z,21.60
2022-11-17T21:41:38.589Z,21.07
2022-11-17T21:44:06.627Z,22.07
2022-11-17T21:46:37.728Z,20.27
2022-11-17T21:49:05.317Z,20.53
2022-11-17T21:51:38.194Z,21.43
2022-11-17T21:54:08.358Z,20.87
2022-11-17T21:56:42.606Z,20.00
2022-11-17T21:59:12.870Z,19.60
2022-11-17T22:01:40.869Z,20.87
2022-11-17T22:04:08.350Z,19.87
2022-11-17T22:06:39.332Z,20.60
2022-11-17T22:09:06.842Z,19.73
2022-11-17T22:11:37.784Z,19.50
2022-11-17T22:14:08.086Z,21.23
2022-11-17T22:16:36.168Z,21.00
2022-11-17T22:19:03.901Z,20.33
2022-11-17T22:21:31.320Z,21.47
2022-11-17T22:24:00.564Z,21.27
2022-11-17T22:26:28.083Z,19.27
2022-11-17T22:28:56.837Z,21.90
2022-11-17T22:31:24.819Z,22.60
2022-11-17T22:33:52.400Z,20.07
2022-11-17T22:36:20.607Z,20.37
2022-11-17T22:38:51.221Z,20.40
2022-11-17T22:41:21.612Z,21.57
2022-11-17T22:43:50.664Z,19.63
2022-11-17T22:46:19.294Z,19.33
2022-11-17T22:48:47.136Z,19.40
2022-11-17T22:51:35.394Z,18.47
2022-11-17T22:54:02.798Z,18.27
2022-11-17T22:56:31.863Z,18.67
2022-11-17T22:58:59.948Z,20.03
2022-11-17T23:01:27.780Z,18.03
2022-11-17T23:03:55.339Z,18.37
2022-11-17T23:06:24.134Z,20.77
2022-11-17T23:08:51.699Z,20.13
2022-11-17T23:11:36.486Z,20.73
2022-11-17T23:14:07.770Z,20.47
2022-11-17T23:16:35.266Z,19.77
2022-11-17T23:19:02.694Z,19.80
2022-11-17T23:21:30.293Z,20.40
2022-11-17T23:23:57.809Z,19.17
2022-11-17T23:26:25.227Z,17.90
2022-11-17T23:28:52.857Z,15.60
2022-11-17T23:31:21.924Z,18.47
2022-11-17T23:33:49.671Z,18.87
2022-11-17T23:36:19.186Z,17.03
2022-11-17T23:38:47.038Z,14.30
2022-11-17T23:41:17.326Z,20.63
2022-11-17T23:43:44.776Z,24.23
2022-11-17T23:46:15.113Z,24.67
2022-11-17T23:48:44.612Z,22.50
2022-11-17T23:51:13.951Z,23.83
2022-11-17T23:53:41.985Z,23.57
2022-11-17T23:56:10.373Z,23.50
2022-11-17T23:58:38.115Z,23.67
